sensor_id;sensor_type;location;lat;lon;timestamp;temperature;humidity
11122;DHT22;5615;49.304;10.576;2024-02-21T00:04:51;6.00;99.90
11122;DHT22;5615;49.304;10.576;2024-02-21T00:07:18;6.00;99.90
11122;DHT22;5615;49.304;10.576;2024-02-21T00:09:46;6.00;99.90
11122;DHT22;5615;49.304;10.576;2024-02-21T00:12:15;6.00;99.90
11122;DHT22;5615;49.304;10.576;2024-02-21T00:24:52;6.00;99.90
11122;DHT22;5615;49.304;10.576;2024-02-21T00:27:18;5.90;99.90
11122;DHT22;5615;49.304;10.576;2024-02-21T00:29:54;5.90;99.90
11122;DHT22;5615;49.304;10.576;2024-02-21T00:32:21;5.90;99.90
11122;DHT22;5615;49.304;10.576;2024-02-21T00:34:48;6.00;99.90
11122;DHT22;5615;49.304;10.576;2024-02-21T00:37:15;6.00;99.90
11122;DHT22;5615;49.304;10.576;2024-02-21T00:39:41;6.00;99.90
11122;DHT22;5615;49.304;10.576;2024-02-21T00:42:10;6.00;99.90
11122;DHT22;5615;49.304;10.576;2024-02-21T00:47:40;6.10;99.90
11122;DHT22;5615;49.304;10.576;2024-02-21T01:00:30;6.10;99.90
11122;DHT22;5615;49.304;10.576;2024-02-21T01:02:57;6.10;99.90
11122;DHT22;5615;49.304;10.576;2024-02-21T01:33:56;6.00;99.90
11122;DHT22;5615;49.304;10.576;2024-02-21T01:41:29;6.00;99.90
11122;DHT22;5615;49.304;10.576;2024-02-21T01:43:57;6.00;99.90
11122;DHT22;5615;49.304;10.576;2024-02-21T01:46:24;6.10;99.90
11122;DHT22;5615;49.304;10.576;2024-02-21T01:48:58;6.00;99.90
11122;DHT22;5615;49.304;10.576;2024-02-21T01:51:28;6.10;99.90
11122;DHT22;5615;49.304;10.576;2024-02-21T01:53:55;6.20;99.90
11122;DHT22;5615;49.304;10.576;2024-02-21T01:56:24;6.10;99.90
11122;DHT22;5615;49.304;10.576;2024-02-21T01:58:52;6.10;99.90
11122;DHT22;5615;49.304;10.576;2024-02-21T02:01:19;6.10;99.90
11122;DHT22;5615;49.304;10.576;2024-02-21T02:03:47;6.10;99.90
11122;DHT22;5615;49.304;10.576;2024-02-21T02:42:35;6.10;99.90
11122;DHT22;5615;49.304;10.576;2024-02-21T02:45:02;6.10;99.90
11122;DHT22;5615;49.304;10.576;2024-02-21T02:55:12;6.10;99.90
11122;DHT22;5615;49.304;10.576;2024-02-21T03:00:16;6.20;99.90
11122;DHT22;5615;49.304;10.576;2024-02-21T03:18:13;6.20;99.90
11122;DHT22;5615;49.304;10.576;2024-02-21T03:23:16;6.10;99.90
11122;DHT22;5615;49.304;10.576;2024-02-21T03:25:44;6.10;99.90
11122;DHT22;5615;49.304;10.576;2024-02-21T03:28:10;6.10;99.90
11122;DHT22;5615;49.304;10.576;2024-02-21T03:30:38;6.10;99.90
11122;DHT22;5615;49.304;10.576;2024-02-21T03:33:04;6.10;99.90
11122;DHT22;5615;49.304;10.576;2024-02-21T03:45:54;6.20;99.90
11122;DHT22;5615;49.304;10.576;2024-02-21T03:48:24;6.20;99.90
11122;DHT22;5615;49.304;10.576;2024-02-21T03:50:52;6.10;99.90
11122;DHT22;5615;49.304;10.576;2024-02-21T03:53:19;6.10;99.90
11122;DHT22;5615;49.304;10.576;2024-02-21T03:55:48;6.10;99.90
11122;DHT22;5615;49.304;10.576;2024-02-21T04:06:16;5.80;99.90
11122;DHT22;5615;49.304;10.576;2024-02-21T04:11:18;5.70;99.90
11122;DHT22;5615;49.304;10.576;2024-02-21T04:13:45;5.70;99.90
11122;DHT22;5615;49.304;10.576;2024-02-21T04:16:14;5.70;99.90
11122;DHT22;5615;49.304;10.576;2024-02-21T04:18:41;5.70;99.90
11122;DHT22;5615;49.304;10.576;2024-02-21T04:21:07;5.60;99.90
11122;DHT22;5615;49.304;10.576;2024-02-21T04:23:36;5.60;99.90
11122;DHT22;5615;49.304;10.576;2024-02-21T04:26:02;5.60;99.90
11122;DHT22;5615;49.304;10.576;2024-02-21T04:28:29;5.60;99.90
11122;DHT22;5615;49.304;10.576;2024-02-21T04:30:56;5.60;99.90
11122;DHT22;5615;49.304;10.576;2024-02-21T04:33:22;5.60;99.90
11122;DHT22;5615;49.304;10.576;2024-02-21T04:35:49;5.60;99.90
11122;DHT22;5615;49.304;10.576;2024-02-21T04:38:17;5.60;99.90
11122;DHT22;5615;49.304;10.576;2024-02-21T04:40:45;5.60;99.90
11122;DHT22;5615;49.304;10.576;2024-02-21T04:43:12;5.60;99.90
11122;DHT22;5615;49.304;10.576;2024-02-21T04:45:38;5.60;99.90
11122;DHT22;5615;49.304;10.576;2024-02-21T04:48:05;5.60;99.90
11122;DHT22;5615;49.304;10.576;2024-02-21T04:50:32;5.60;99.90
11122;DHT22;5615;49.304;10.576;2024-02-21T04:52:59;5.60;99.90
11122;DHT22;5615;49.304;10.576;2024-02-21T04:55:26;5.50;99.90
11122;DHT22;5615;49.304;10.576;2024-02-21T04:57:54;5.50;99.90
11122;DHT22;5615;49.304;10.576;2024-02-21T05:00:20;5.50;99.90
11122;DHT22;5615;49.304;10.576;2024-02-21T05:02:47;5.50;99.90
11122;DHT22;5615;49.304;10.576;2024-02-21T05:05:14;5.40;99.90
11122;DHT22;5615;49.304;10.576;2024-02-21T05:07:42;5.40;99.90
11122;DHT22;5615;49.304;10.576;2024-02-21T05:10:09;5.40;99.90
11122;DHT22;5615;49.304;10.576;2024-02-21T05:12:36;5.30;99.90
11122;DHT22;5615;49.304;10.576;2024-02-21T05:15:05;5.30;99.90
11122;DHT22;5615;49.304;10.576;2024-02-21T05:17:32;5.20;99.90
11122;DHT22;5615;49.304;10.576;2024-02-21T05:19:58;5.30;99.90
11122;DHT22;5615;49.304;10.576;2024-02-21T05:22:25;5.20;99.90
11122;DHT22;5615;49.304;10.576;2024-02-21T05:24:52;5.20;99.90
11122;DHT22;5615;49.304;10.576;2024-02-21T05:27:19;5.20;99.90
11122;DHT22;5615;49.304;10.576;2024-02-21T05:29:46;5.20;99.90
11122;DHT22;5615;49.304;10.576;2024-02-21T05:32:15;5.10;99.90
11122;DHT22;5615;49.304;10.576;2024-02-21T05:34:41;5.10;99.90
11122;DHT22;5615;49.304;10.576;2024-02-21T05:37:09;5.10;99.90
11122;DHT22;5615;49.304;10.576;2024-02-21T05:39:36;5.10;99.90
11122;DHT22;5615;49.304;10.576;2024-02-21T05:42:03;5.10;99.90
11122;DHT22;5615;49.304;10.576;2024-02-21T05:44:29;5.00;99.90
11122;DHT22;5615;49.304;10.576;2024-02-21T05:46:56;5.00;99.90
11122;DHT22;5615;49.304;10.576;2024-02-21T05:49:24;5.00;99.90
11122;DHT22;5615;49.304;10.576;2024-02-21T05:51:51;4.90;99.90
11122;DHT22;5615;49.304;10.576;2024-02-21T05:54:17;4.90;99.90
11122;DHT22;5615;49.304;10.576;2024-02-21T05:56:45;4.80;99.90
11122;DHT22;5615;49.304;10.576;2024-02-21T05:59:12;4.80;99.90
11122;DHT22;5615;49.304;10.576;2024-02-21T06:01:39;4.70;99.90
11122;DHT22;5615;49.304;10.576;2024-02-21T06:04:06;4.60;99.90
11122;DHT22;5615;49.304;10.576;2024-02-21T06:06:34;4.60;99.90
11122;DHT22;5615;49.304;10.576;2024-02-21T06:09:00;4.60;99.90
11122;DHT22;5615;49.304;10.576;2024-02-21T06:11:28;4.60;99.90
11122;DHT22;5615;49.304;10.576;2024-02-21T06:13:55;4.60;99.90
11122;DHT22;5615;49.304;10.576;2024-02-21T06:16:22;4.60;99.90
11122;DHT22;5615;49.304;10.576;2024-02-21T06:18:48;4.60;99.90
11122;DHT22;5615;49.304;10.576;2024-02-21T06:21:15;4.50;99.90
11122;DHT22;5615;49.304;10.576;2024-02-21T06:23:43;4.50;99.90
11122;DHT22;5615;49.304;10.576;2024-02-21T06:26:10;4.60;99.90
11122;DHT22;5615;49.304;10.576;2024-02-21T06:28:37;4.60;99.90
11122;DHT22;5615;49.304;10.576;2024-02-21T06:31:03;4.70;99.90
11122;DHT22;5615;49.304;10.576;2024-02-21T06:33:30;4.80;99.90
11122;DHT22;5615;49.304;10.576;2024-02-21T06:35:56;4.70;99.90
11122;DHT22;5615;49.304;10.576;2024-02-21T06:38:23;4.70;99.90
11122;DHT22;5615;49.304;10.576;2024-02-21T06:40:51;4.70;99.90
11122;DHT22;5615;49.304;10.576;2024-02-21T06:43:20;4.60;99.90
11122;DHT22;5615;49.304;10.576;2024-02-21T06:45:47;4.60;99.90
11122;DHT22;5615;49.304;10.576;2024-02-21T06:48:16;4.60;99.90
11122;DHT22;5615;49.304;10.576;2024-02-21T06:54:01;4.70;99.90
11122;DHT22;5615;49.304;10.576;2024-02-21T06:56:35;4.80;99.90
11122;DHT22;5615;49.304;10.576;2024-02-21T06:59:03;4.90;99.90
11122;DHT22;5615;49.304;10.576;2024-02-21T07:01:30;4.90;99.90
11122;DHT22;5615;49.304;10.576;2024-02-21T07:03:57;5.00;99.90
11122;DHT22;5615;49.304;10.576;2024-02-21T07:06:23;5.00;99.90
11122;DHT22;5615;49.304;10.576;2024-02-21T07:08:50;5.00;99.90
11122;DHT22;5615;49.304;10.576;2024-02-21T07:11:17;5.10;99.90
11122;DHT22;5615;49.304;10.576;2024-02-21T07:13:45;5.20;99.90
11122;DHT22;5615;49.304;10.576;2024-02-21T07:19:04;5.30;99.90
11122;DHT22;5615;49.304;10.576;2024-02-21T07:21:31;5.50;99.90
11122;DHT22;5615;49.304;10.576;2024-02-21T07:23:58;5.60;99.90
11122;DHT22;5615;49.304;10.576;2024-02-21T07:26:25;5.60;99.90
11122;DHT22;5615;49.304;10.576;2024-02-21T07:28:53;5.70;99.90
11122;DHT22;5615;49.304;10.576;2024-02-21T07:31:19;5.80;99.90
11122;DHT22;5615;49.304;10.576;2024-02-21T07:33:46;5.80;99.90
11122;DHT22;5615;49.304;10.576;2024-02-21T07:36:15;5.90;99.90
11122;DHT22;5615;49.304;10.576;2024-02-21T07:38:42;5.90;99.90
11122;DHT22;5615;49.304;10.576;2024-02-21T07:41:09;6.00;99.90
11122;DHT22;5615;49.304;10.576;2024-02-21T07:43:35;6.10;99.90
11122;DHT22;5615;49.304;10.576;2024-02-21T07:46:03;6.10;99.90
11122;DHT22;5615;49.304;10.576;2024-02-21T07:48:30;6.10;99.90
11122;DHT22;5615;49.304;10.576;2024-02-21T07:50:57;6.10;99.90
11122;DHT22;5615;49.304;10.576;2024-02-21T07:53:23;6.00;99.90
11122;DHT22;5615;49.304;10.576;2024-02-21T07:55:50;6.10;99.90
11122;DHT22;5615;49.304;10.576;2024-02-21T07:58:17;6.10;99.90
11122;DHT22;5615;49.304;10.576;2024-02-21T08:00:43;6.20;99.90
11122;DHT22;5615;49.304;10.576;2024-02-21T08:03:11;6.20;99.90
11122;DHT22;5615;49.304;10.576;2024-02-21T08:05:40;6.30;99.90
11122;DHT22;5615;49.304;10.576;2024-02-21T08:08:06;6.50;99.90
11122;DHT22;5615;49.304;10.576;2024-02-21T08:10:33;6.60;99.90
11122;DHT22;5615;49.304;10.576;2024-02-21T08:13:00;6.70;99.90
11122;DHT22;5615;49.304;10.576;2024-02-21T08:15:26;6.90;99.90
11122;DHT22;5615;49.304;10.576;2024-02-21T08:17:55;7.00;99.90
11122;DHT22;5615;49.304;10.576;2024-02-21T08:20:26;7.10;99.90
11122;DHT22;5615;49.304;10.576;2024-02-21T08:22:52;7.40;99.90
11122;DHT22;5615;49.304;10.576;2024-02-21T08:25:19;7.50;99.90
11122;DHT22;5615;49.304;10.576;2024-02-21T08:27:46;7.80;99.90
11122;DHT22;5615;49.304;10.576;2024-02-21T08:30:13;8.00;99.90
11122;DHT22;5615;49.304;10.576;2024-02-21T08:32:40;8.10;99.90
11122;DHT22;5615;49.304;10.576;2024-02-21T08:35:08;8.20;99.90
11122;DHT22;5615;49.304;10.576;2024-02-21T08:37:36;8.20;99.90
11122;DHT22;5615;49.304;10.576;2024-02-21T08:40:03;8.10;99.90
11122;DHT22;5615;49.304;10.576;2024-02-21T08:42:34;8.40;99.90
11122;DHT22;5615;49.304;10.576;2024-02-21T08:45:00;8.40;99.90
11122;DHT22;5615;49.304;10.576;2024-02-21T08:47:27;8.30;99.90
11122;DHT22;5615;49.304;10.576;2024-02-21T08:49:54;8.20;99.90
11122;DHT22;5615;49.304;10.576;2024-02-21T08:52:21;8.10;99.90
11122;DHT22;5615;49.304;10.576;2024-02-21T08:54:49;8.30;99.90
11122;DHT22;5615;49.304;10.576;2024-02-21T08:57:18;8.30;99.90
11122;DHT22;5615;49.304;10.576;2024-02-21T08:59:45;8.40;99.90
11122;DHT22;5615;49.304;10.576;2024-02-21T09:02:12;8.50;99.90
11122;DHT22;5615;49.304;10.576;2024-02-21T09:04:41;8.60;99.90
11122;DHT22;5615;49.304;10.576;2024-02-21T09:07:09;9.00;99.90
11122;DHT22;5615;49.304;10.576;2024-02-21T09:09:36;9.30;99.90
11122;DHT22;5615;49.304;10.576;2024-02-21T09:12:06;9.40;99.90
11122;DHT22;5615;49.304;10.576;2024-02-21T09:14:32;9.10;99.90
11122;DHT22;5615;49.304;10.576;2024-02-21T09:16:59;8.70;99.90
11122;DHT22;5615;49.304;10.576;2024-02-21T09:19:26;8.80;99.90
11122;DHT22;5615;49.304;10.576;2024-02-21T09:21:53;8.90;99.90
11122;DHT22;5615;49.304;10.576;2024-02-21T09:24:19;8.90;99.90
11122;DHT22;5615;49.304;10.576;2024-02-21T09:26:46;8.90;99.90
11122;DHT22;5615;49.304;10.576;2024-02-21T09:29:14;8.90;99.90
11122;DHT22;5615;49.304;10.576;2024-02-21T09:31:41;9.10;99.90
11122;DHT22;5615;49.304;10.576;2024-02-21T09:34:08;9.00;99.90
11122;DHT22;5615;49.304;10.576;2024-02-21T09:36:36;9.30;99.90
11122;DHT22;5615;49.304;10.576;2024-02-21T09:39:03;9.50;99.90
11122;DHT22;5615;49.304;10.576;2024-02-21T09:41:30;9.50;99.90
11122;DHT22;5615;49.304;10.576;2024-02-21T09:43:57;9.90;99.90
11122;DHT22;5615;49.304;10.576;2024-02-21T09:46:36;9.90;99.90
11122;DHT22;5615;49.304;10.576;2024-02-21T09:49:14;10.00;99.90
11122;DHT22;5615;49.304;10.576;2024-02-21T09:51:45;10.40;99.90
11122;DHT22;5615;49.304;10.576;2024-02-21T09:54:13;10.60;99.90
11122;DHT22;5615;49.304;10.576;2024-02-21T09:56:40;10.00;99.90
11122;DHT22;5615;49.304;10.576;2024-02-21T09:59:07;10.00;99.90
11122;DHT22;5615;49.304;10.576;2024-02-21T10:01:35;9.80;99.90
11122;DHT22;5615;49.304;10.576;2024-02-21T10:04:02;10.00;99.90
11122;DHT22;5615;49.304;10.576;2024-02-21T10:06:30;9.80;99.90
11122;DHT22;5615;49.304;10.576;2024-02-21T10:08:56;9.80;99.90
11122;DHT22;5615;49.304;10.576;2024-02-21T10:11:23;10.20;99.90
11122;DHT22;5615;49.304;10.576;2024-02-21T10:13:50;10.30;99.90
11122;DHT22;5615;49.304;10.576;2024-02-21T10:16:17;10.60;99.90
11122;DHT22;5615;49.304;10.576;2024-02-21T10:18:45;10.60;99.90
11122;DHT22;5615;49.304;10.576;2024-02-21T10:21:12;10.10;99.90
11122;DHT22;5615;49.304;10.576;2024-02-21T10:23:46;10.50;99.90
11122;DHT22;5615;49.304;10.576;2024-02-21T10:26:13;10.70;99.90
11122;DHT22;5615;49.304;10.576;2024-02-21T10:28:41;10.80;99.90
11122;DHT22;5615;49.304;10.576;2024-02-21T10:31:10;10.30;99.90
11122;DHT22;5615;49.304;10.576;2024-02-21T10:33:37;10.30;99.90
11122;DHT22;5615;49.304;10.576;2024-02-21T10:36:10;10.60;99.90
11122;DHT22;5615;49.304;10.576;2024-02-21T10:38:37;10.40;99.90
11122;DHT22;5615;49.304;10.576;2024-02-21T10:41:05;10.30;99.90
11122;DHT22;5615;49.304;10.576;2024-02-21T10:43:38;10.40;99.90
11122;DHT22;5615;49.304;10.576;2024-02-21T10:46:06;10.60;99.90
11122;DHT22;5615;49.304;10.576;2024-02-21T10:48:41;10.70;99.90
11122;DHT22;5615;49.304;10.576;2024-02-21T10:51:16;11.10;99.90
11122;DHT22;5615;49.304;10.576;2024-02-21T10:53:45;11.00;99.90
11122;DHT22;5615;49.304;10.576;2024-02-21T10:56:25;11.50;99.90
11122;DHT22;5615;49.304;10.576;2024-02-21T10:58:52;11.70;99.90
11122;DHT22;5615;49.304;10.576;2024-02-21T11:01:20;11.40;99.90
11122;DHT22;5615;49.304;10.576;2024-02-21T11:03:50;11.60;99.90
11122;DHT22;5615;49.304;10.576;2024-02-21T11:06:19;12.20;99.90
11122;DHT22;5615;49.304;10.576;2024-02-21T11:08:47;12.70;99.90
11122;DHT22;5615;49.304;10.576;2024-02-21T11:11:15;13.00;99.90
11122;DHT22;5615;49.304;10.576;2024-02-21T11:13:44;13.40;99.90
11122;DHT22;5615;49.304;10.576;2024-02-21T11:16:12;14.00;99.90
11122;DHT22;5615;49.304;10.576;2024-02-21T11:18:47;13.50;99.90
11122;DHT22;5615;49.304;10.576;2024-02-21T11:21:14;14.10;99.90
11122;DHT22;5615;49.304;10.576;2024-02-21T11:23:42;14.20;99.90
11122;DHT22;5615;49.304;10.576;2024-02-21T11:26:09;15.00;99.90
11122;DHT22;5615;49.304;10.576;2024-02-21T11:28:36;14.60;99.90
11122;DHT22;5615;49.304;10.576;2024-02-21T11:31:11;14.50;99.90
11122;DHT22;5615;49.304;10.576;2024-02-21T11:33:40;15.70;99.90
11122;DHT22;5615;49.304;10.576;2024-02-21T11:36:08;16.50;99.90
11122;DHT22;5615;49.304;10.576;2024-02-21T11:38:34;16.50;96.50
11122;DHT22;5615;49.304;10.576;2024-02-21T11:41:03;16.40;96.70
11122;DHT22;5615;49.304;10.576;2024-02-21T11:43:34;16.90;93.80
11122;DHT22;5615;49.304;10.576;2024-02-21T11:46:01;16.40;92.40
11122;DHT22;5615;49.304;10.576;2024-02-21T11:48:30;16.60;92.90
11122;DHT22;5615;49.304;10.576;2024-02-21T11:50:58;16.80;91.10
11122;DHT22;5615;49.304;10.576;2024-02-21T11:53:26;17.40;91.10
11122;DHT22;5615;49.304;10.576;2024-02-21T11:55:56;16.70;90.10
11122;DHT22;5615;49.304;10.576;2024-02-21T11:58:24;16.00;88.80
11122;DHT22;5615;49.304;10.576;2024-02-21T12:00:52;16.10;90.20
11122;DHT22;5615;49.304;10.576;2024-02-21T12:03:18;16.30;90.10
11122;DHT22;5615;49.304;10.576;2024-02-21T12:05:46;15.30;90.30
11122;DHT22;5615;49.304;10.576;2024-02-21T12:08:13;16.10;90.40
11122;DHT22;5615;49.304;10.576;2024-02-21T12:10:41;15.90;91.00
11122;DHT22;5615;49.304;10.576;2024-02-21T12:13:09;15.20;87.90
11122;DHT22;5615;49.304;10.576;2024-02-21T12:15:40;14.40;90.00
11122;DHT22;5615;49.304;10.576;2024-02-21T12:18:06;15.20;88.50
11122;DHT22;5615;49.304;10.576;2024-02-21T12:20:33;15.30;87.60
11122;DHT22;5615;49.304;10.576;2024-02-21T12:23:01;15.30;87.00
11122;DHT22;5615;49.304;10.576;2024-02-21T12:25:29;14.60;88.80
11122;DHT22;5615;49.304;10.576;2024-02-21T12:27:56;14.70;87.80
11122;DHT22;5615;49.304;10.576;2024-02-21T12:30:23;14.90;83.40
11122;DHT22;5615;49.304;10.576;2024-02-21T12:32:51;15.70;86.40
11122;DHT22;5615;49.304;10.576;2024-02-21T12:35:18;15.20;83.60
11122;DHT22;5615;49.304;10.576;2024-02-21T12:37:45;15.60;86.90
11122;DHT22;5615;49.304;10.576;2024-02-21T12:40:11;15.70;83.70
11122;DHT22;5615;49.304;10.576;2024-02-21T12:42:39;15.80;88.50
11122;DHT22;5615;49.304;10.576;2024-02-21T12:45:07;15.20;80.20
11122;DHT22;5615;49.304;10.576;2024-02-21T12:47:34;15.00;80.90
11122;DHT22;5615;49.304;10.576;2024-02-21T12:50:02;14.20;79.00
11122;DHT22;5615;49.304;10.576;2024-02-21T12:52:32;14.50;81.20
11122;DHT22;5615;49.304;10.576;2024-02-21T12:54:58;14.40;81.40
11122;DHT22;5615;49.304;10.576;2024-02-21T12:57:25;14.70;80.40
11122;DHT22;5615;49.304;10.576;2024-02-21T12:59:52;14.50;79.80
11122;DHT22;5615;49.304;10.576;2024-02-21T13:02:18;14.80;81.70
11122;DHT22;5615;49.304;10.576;2024-02-21T13:04:46;14.30;78.80
11122;DHT22;5615;49.304;10.576;2024-02-21T13:07:14;13.50;78.00
11122;DHT22;5615;49.304;10.576;2024-02-21T13:09:41;13.30;79.40
11122;DHT22;5615;49.304;10.576;2024-02-21T13:12:08;12.90;81.40
11122;DHT22;5615;49.304;10.576;2024-02-21T13:14:34;13.00;82.40
11122;DHT22;5615;49.304;10.576;2024-02-21T13:17:04;13.20;84.10
11122;DHT22;5615;49.304;10.576;2024-02-21T13:19:31;13.00;83.50
11122;DHT22;5615;49.304;10.576;2024-02-21T13:21:57;13.20;83.90
11122;DHT22;5615;49.304;10.576;2024-02-21T13:24:25;13.00;85.40
11122;DHT22;5615;49.304;10.576;2024-02-21T13:26:52;13.20;85.60
11122;DHT22;5615;49.304;10.576;2024-02-21T13:29:19;13.90;87.10
11122;DHT22;5615;49.304;10.576;2024-02-21T13:31:46;14.50;83.80
11122;DHT22;5615;49.304;10.576;2024-02-21T13:34:12;14.50;82.40
11122;DHT22;5615;49.304;10.576;2024-02-21T13:36:39;14.00;81.90
11122;DHT22;5615;49.304;10.576;2024-02-21T13:39:05;14.70;82.00
11122;DHT22;5615;49.304;10.576;2024-02-21T13:41:35;15.50;80.00
11122;DHT22;5615;49.304;10.576;2024-02-21T13:44:01;16.30;75.80
11122;DHT22;5615;49.304;10.576;2024-02-21T13:46:29;16.40;73.90
11122;DHT22;5615;49.304;10.576;2024-02-21T13:49:03;16.80;71.00
11122;DHT22;5615;49.304;10.576;2024-02-21T13:51:31;17.00;70.70
11122;DHT22;5615;49.304;10.576;2024-02-21T13:53:58;17.10;69.30
11122;DHT22;5615;49.304;10.576;2024-02-21T13:56:25;16.70;67.00
11122;DHT22;5615;49.304;10.576;2024-02-21T13:58:53;16.20;68.70
11122;DHT22;5615;49.304;10.576;2024-02-21T14:01:20;15.90;68.30
11122;DHT22;5615;49.304;10.576;2024-02-21T14:03:46;16.40;68.20
11122;DHT22;5615;49.304;10.576;2024-02-21T14:06:13;16.70;68.00
11122;DHT22;5615;49.304;10.576;2024-02-21T14:08:40;16.30;66.20
11122;DHT22;5615;49.304;10.576;2024-02-21T14:11:06;16.80;65.90
11122;DHT22;5615;49.304;10.576;2024-02-21T14:13:33;17.60;61.60
11122;DHT22;5615;49.304;10.576;2024-02-21T14:16:01;15.80;64.20
11122;DHT22;5615;49.304;10.576;2024-02-21T14:18:28;15.70;64.00
11122;DHT22;5615;49.304;10.576;2024-02-21T14:20:54;17.10;63.50
11122;DHT22;5615;49.304;10.576;2024-02-21T14:23:21;16.70;59.80
11122;DHT22;5615;49.304;10.576;2024-02-21T14:25:48;16.20;61.10
11122;DHT22;5615;49.304;10.576;2024-02-21T14:28:15;16.30;60.50
11122;DHT22;5615;49.304;10.576;2024-02-21T14:30:43;15.90;62.10
11122;DHT22;5615;49.304;10.576;2024-02-21T14:33:11;14.60;60.70
11122;DHT22;5615;49.304;10.576;2024-02-21T14:35:38;14.00;61.30
11122;DHT22;5615;49.304;10.576;2024-02-21T14:38:05;13.50;62.60
11122;DHT22;5615;49.304;10.576;2024-02-21T14:40:31;13.20;63.10
11122;DHT22;5615;49.304;10.576;2024-02-21T14:42:59;12.80;64.10
11122;DHT22;5615;49.304;10.576;2024-02-21T14:45:26;12.60;64.80
11122;DHT22;5615;49.304;10.576;2024-02-21T14:47:52;12.50;63.40
11122;DHT22;5615;49.304;10.576;2024-02-21T14:50:22;12.40;64.10
11122;DHT22;5615;49.304;10.576;2024-02-21T14:52:48;12.30;64.10
11122;DHT22;5615;49.304;10.576;2024-02-21T14:55:15;12.20;64.70
11122;DHT22;5615;49.304;10.576;2024-02-21T14:57:42;12.10;65.00
11122;DHT22;5615;49.304;10.576;2024-02-21T15:00:10;12.00;64.90
11122;DHT22;5615;49.304;10.576;2024-02-21T15:02:37;12.10;64.70
11122;DHT22;5615;49.304;10.576;2024-02-21T15:05:04;12.00;65.00
11122;DHT22;5615;49.304;10.576;2024-02-21T15:07:33;12.10;66.10
11122;DHT22;5615;49.304;10.576;2024-02-21T15:10:00;12.20;64.90
11122;DHT22;5615;49.304;10.576;2024-02-21T15:12:26;12.10;64.30
11122;DHT22;5615;49.304;10.576;2024-02-21T15:14:53;12.00;64.90
11122;DHT22;5615;49.304;10.576;2024-02-21T15:17:20;11.90;66.50
11122;DHT22;5615;49.304;10.576;2024-02-21T15:19:46;11.80;66.50
11122;DHT22;5615;49.304;10.576;2024-02-21T15:22:13;11.80;67.30
11122;DHT22;5615;49.304;10.576;2024-02-21T15:24:42;11.80;68.50
11122;DHT22;5615;49.304;10.576;2024-02-21T15:27:08;11.90;66.70
11122;DHT22;5615;49.304;10.576;2024-02-21T15:29:35;11.90;67.90
11122;DHT22;5615;49.304;10.576;2024-02-21T15:32:02;11.80;68.40
11122;DHT22;5615;49.304;10.576;2024-02-21T15:34:29;11.80;69.50
11122;DHT22;5615;49.304;10.576;2024-02-21T15:36:56;11.70;69.00
11122;DHT22;5615;49.304;10.576;2024-02-21T15:39:23;11.70;71.50
11122;DHT22;5615;49.304;10.576;2024-02-21T15:41:54;11.50;70.50
11122;DHT22;5615;49.304;10.576;2024-02-21T15:44:20;11.60;73.10
11122;DHT22;5615;49.304;10.576;2024-02-21T15:46:47;11.60;72.80
11122;DHT22;5615;49.304;10.576;2024-02-21T15:49:14;11.60;72.10
11122;DHT22;5615;49.304;10.576;2024-02-21T15:51:41;11.60;73.80
11122;DHT22;5615;49.304;10.576;2024-02-21T15:54:08;11.50;72.80
11122;DHT22;5615;49.304;10.576;2024-02-21T15:56:35;11.50;74.10
11122;DHT22;5615;49.304;10.576;2024-02-21T15:59:03;11.40;75.90
11122;DHT22;5615;49.304;10.576;2024-02-21T16:01:30;11.30;76.00
11122;DHT22;5615;49.304;10.576;2024-02-21T16:03:58;11.30;77.10
11122;DHT22;5615;49.304;10.576;2024-02-21T16:06:25;11.30;76.60
11122;DHT22;5615;49.304;10.576;2024-02-21T16:08:52;11.30;78.50
11122;DHT22;5615;49.304;10.576;2024-02-21T16:11:19;11.20;79.00
11122;DHT22;5615;49.304;10.576;2024-02-21T16:13:45;11.30;78.80
11122;DHT22;5615;49.304;10.576;2024-02-21T16:16:14;11.20;80.10
11122;DHT22;5615;49.304;10.576;2024-02-21T16:18:41;11.20;80.60
11122;DHT22;5615;49.304;10.576;2024-02-21T16:21:08;11.00;81.80
11122;DHT22;5615;49.304;10.576;2024-02-21T16:23:35;10.90;82.30
11122;DHT22;5615;49.304;10.576;2024-02-21T16:26:01;10.80;89.10
11122;DHT22;5615;49.304;10.576;2024-02-21T16:28:28;10.70;91.20
11122;DHT22;5615;49.304;10.576;2024-02-21T16:30:55;10.40;94.90
11122;DHT22;5615;49.304;10.576;2024-02-21T16:33:24;10.40;98.10
11122;DHT22;5615;49.304;10.576;2024-02-21T16:35:51;10.20;99.90
11122;DHT22;5615;49.304;10.576;2024-02-21T16:38:18;10.00;99.90
11122;DHT22;5615;49.304;10.576;2024-02-21T16:40:44;10.00;99.90
11122;DHT22;5615;49.304;10.576;2024-02-21T16:43:11;9.90;99.90
11122;DHT22;5615;49.304;10.576;2024-02-21T16:45:38;9.80;99.90
11122;DHT22;5615;49.304;10.576;2024-02-21T16:48:05;9.70;99.90
11122;DHT22;5615;49.304;10.576;2024-02-21T16:50:33;9.60;99.90
11122;DHT22;5615;49.304;10.576;2024-02-21T16:53:00;9.50;99.90
11122;DHT22;5615;49.304;10.576;2024-02-21T16:55:29;9.50;99.90
11122;DHT22;5615;49.304;10.576;2024-02-21T16:57:58;9.40;99.90
11122;DHT22;5615;49.304;10.576;2024-02-21T17:00:25;9.40;99.90
11122;DHT22;5615;49.304;10.576;2024-02-21T17:02:52;9.40;99.90
11122;DHT22;5615;49.304;10.576;2024-02-21T17:05:19;9.30;99.90
11122;DHT22;5615;49.304;10.576;2024-02-21T17:07:51;9.30;99.90
11122;DHT22;5615;49.304;10.576;2024-02-21T17:10:17;9.30;99.90
11122;DHT22;5615;49.304;10.576;2024-02-21T17:12:44;9.20;99.90
11122;DHT22;5615;49.304;10.576;2024-02-21T17:15:11;9.20;99.90
11122;DHT22;5615;49.304;10.576;2024-02-21T17:17:39;9.20;99.90
11122;DHT22;5615;49.304;10.576;2024-02-21T17:20:06;9.10;99.90
11122;DHT22;5615;49.304;10.576;2024-02-21T17:22:33;9.10;99.90
11122;DHT22;5615;49.304;10.576;2024-02-21T17:25:01;9.10;99.90
11122;DHT22;5615;49.304;10.576;2024-02-21T17:27:28;9.10;99.90
11122;DHT22;5615;49.304;10.576;2024-02-21T17:29:55;9.10;99.90
11122;DHT22;5615;49.304;10.576;2024-02-21T17:32:21;9.10;99.90
11122;DHT22;5615;49.304;10.576;2024-02-21T17:34:48;9.00;99.90
11122;DHT22;5615;49.304;10.576;2024-02-21T17:37:15;9.00;99.90
11122;DHT22;5615;49.304;10.576;2024-02-21T17:39:41;9.00;99.90
11122;DHT22;5615;49.304;10.576;2024-02-21T17:42:09;9.00;99.90
11122;DHT22;5615;49.304;10.576;2024-02-21T17:44:36;9.00;99.90
11122;DHT22;5615;49.304;10.576;2024-02-21T17:47:04;9.00;99.90
11122;DHT22;5615;49.304;10.576;2024-02-21T17:49:31;9.00;99.90
11122;DHT22;5615;49.304;10.576;2024-02-21T17:51:58;8.90;99.90
11122;DHT22;5615;49.304;10.576;2024-02-21T17:54:25;8.90;99.90
11122;DHT22;5615;49.304;10.576;2024-02-21T17:56:51;9.00;99.90
11122;DHT22;5615;49.304;10.576;2024-02-21T17:59:19;9.00;99.90
11122;DHT22;5615;49.304;10.576;2024-02-21T18:01:46;8.90;99.90
11122;DHT22;5615;49.304;10.576;2024-02-21T18:04:13;9.00;99.90
11122;DHT22;5615;49.304;10.576;2024-02-21T18:06:40;8.90;99.90
11122;DHT22;5615;49.304;10.576;2024-02-21T18:09:07;8.90;99.90
11122;DHT22;5615;49.304;10.576;2024-02-21T18:11:34;8.80;99.90
11122;DHT22;5615;49.304;10.576;2024-02-21T18:14:01;8.90;99.90